Time;durP1;ratioP1;P1;durP2;ratioP2;P2;SDS_P1;SDS_P2;PMS_P1;PMS_P2;Temp;Humidity;BMP_temperature;BMP_pressure;BME280_temperature;BME280_humidity;BME280_pressure;Samples;Min_cycle;Max_cycle;Signal;HPM_P1;HPM_P2
2022/12/27 00:01:17;;;;;;;4.03;1.83;;;3.10;99.90;;;;;;5079278;28;20070;-68
2022/12/27 00:03:43;;;;;;;6.00;1.90;;;3.20;99.90;;;;;;5080542;28;20086;-70
2022/12/27 00:06:12;;;;;;;4.30;1.70;;;3.10;99.90;;;;;;5078095;28;20074;-69
2022/12/27 00:08:38;;;;;;;7.18;1.80;;;3.10;99.90;;;;;;5081644;28;20036;-68
2022/12/27 00:11:06;;;;;;;3.75;1.65;;;3.20;99.90;;;;;;5078554;28;20051;-68
2022/12/27 00:13:32;;;;;;;5.88;1.58;;;3.10;99.90;;;;;;5090804;28;20044;-70
2022/12/27 00:16:03;;;;;;;3.45;1.50;;;3.10;99.90;;;;;;5075716;28;20040;-69
2022/12/27 00:18:29;;;;;;;6.22;1.80;;;3.10;99.90;;;;;;5077720;28;20079;-68
2022/12/27 00:20:58;;;;;;;4.53;1.63;;;3.00;99.90;;;;;;5080804;28;20036;-69
2022/12/27 00:23:24;;;;;;;4.43;1.90;;;2.90;99.90;;;;;;5061808;28;20049;-68
2022/12/27 00:25:50;;;;;;;6.50;1.92;;;2.90;99.90;;;;;;5079606;28;20174;-68
2022/12/27 00:28:16;;;;;;;2.70;1.30;;;3.00;99.90;;;;;;5079208;28;20104;-69
2022/12/27 00:30:42;;;;;;;4.88;2.03;;;3.20;99.90;;;;;;5073582;28;20044;-69
2022/12/27 00:33:08;;;;;;;4.25;1.60;;;3.10;99.90;;;;;;5079889;28;20044;-69
2022/12/27 00:35:36;;;;;;;5.95;1.65;;;3.30;99.90;;;;;;5078011;28;20037;-68
2022/12/27 00:38:02;;;;;;;2.28;1.20;;;3.20;99.90;;;;;;5081216;28;20082;-68
2022/12/27 00:40:28;;;;;;;4.45;1.75;;;3.20;99.90;;;;;;5077141;28;20432;-68
2022/12/27 00:42:53;;;;;;;6.25;1.60;;;3.10;99.90;;;;;;5081112;28;20044;-68
2022/12/27 00:45:19;;;;;;;4.10;1.55;;;3.20;99.90;;;;;;5080497;28;20102;-67
2022/12/27 00:47:45;;;;;;;3.30;1.35;;;3.30;99.90;;;;;;5079546;28;20044;-70
2022/12/27 00:50:10;;;;;;;3.80;1.63;;;3.00;99.90;;;;;;5079468;28;20048;-68
2022/12/27 00:52:36;;;;;;;4.05;1.60;;;3.10;99.90;;;;;;5078405;28;20097;-69
2022/12/27 00:55:02;;;;;;;3.42;1.80;;;3.10;99.90;;;;;;5079012;28;20033;-69
2022/12/27 00:57:28;;;;;;;4.30;1.50;;;3.10;99.90;;;;;;5077168;28;20104;-69
2022/12/27 00:59:54;;;;;;;4.07;2.00;;;3.10;99.90;;;;;;5080568;28;20080;-67
2022/12/27 01:02:19;;;;;;;4.68;1.88;;;3.20;99.90;;;;;;5077437;28;20052;-68
2022/12/27 01:04:45;;;;;;;4.65;1.88;;;3.20;99.90;;;;;;5078485;28;20046;-69
2022/12/27 01:07:11;;;;;;;3.90;1.80;;;3.20;99.90;;;;;;5081341;28;20045;-67
2022/12/27 01:09:36;;;;;;;5.97;2.40;;;3.20;99.90;;;;;;5079271;28;20048;-68
2022/12/27 01:12:02;;;;;;;3.78;1.98;;;3.00;99.90;;;;;;5078584;28;20096;-67
2022/12/27 01:14:28;;;;;;;3.92;1.80;;;3.00;99.90;;;;;;5068736;28;20130;-67
2022/12/27 01:16:54;;;;;;;5.00;1.85;;;3.00;99.90;;;;;;5067712;28;20055;-68
2022/12/27 01:19:19;;;;;;;3.83;1.52;;;3.20;99.90;;;;;;5077994;28;20048;-67
2022/12/27 01:21:45;;;;;;;9.13;2.55;;;3.00;99.90;;;;;;5078977;28;20064;-68
2022/12/27 01:24:11;;;;;;;4.28;1.98;;;3.00;99.90;;;;;;5079627;28;20036;-68
2022/12/27 01:26:36;;;;;;;5.95;2.33;;;2.90;99.90;;;;;;5078898;28;20040;-67
2022/12/27 01:29:02;;;;;;;5.30;2.03;;;2.90;99.90;;;;;;5081184;28;20527;-67
2022/12/27 01:31:28;;;;;;;4.80;2.05;;;2.90;99.90;;;;;;5070865;28;20049;-69
2022/12/27 01:33:58;;;;;;;3.67;2.10;;;2.80;99.90;;;;;;5080601;28;20044;-67
2022/12/27 01:36:26;;;;;;;5.25;1.90;;;2.80;99.90;;;;;;5077678;28;20048;-67
2022/12/27 01:38:52;;;;;;;4.25;2.10;;;2.80;99.90;;;;;;5080090;28;20078;-67
2022/12/27 01:44:39;;;;;;;6.60;2.13;;;2.90;99.90;;;;;;5068976;28;20052;-70
2022/12/27 01:47:11;;;;;;;4.30;1.98;;;2.80;99.90;;;;;;5042699;28;20033;-68
2022/12/27 01:49:42;;;;;;;5.78;2.10;;;2.90;99.90;;;;;;5060770;28;20123;-67
2022/12/27 01:52:10;;;;;;;6.60;2.50;;;2.80;99.90;;;;;;5076755;28;20040;-69
2022/12/27 01:54:35;;;;;;;5.75;2.45;;;2.80;99.90;;;;;;5080753;28;20049;-69
2022/12/27 01:57:02;;;;;;;4.05;2.17;;;2.80;99.90;;;;;;5071737;28;20090;-67
2022/12/27 01:59:28;;;;;;;3.70;1.80;;;2.80;99.90;;;;;;5073490;28;20083;-67
2022/12/27 02:01:54;;;;;;;3.08;2.05;;;2.80;99.90;;;;;;5070287;28;20108;-67
2022/12/27 02:04:24;;;;;;;4.50;2.17;;;2.80;99.90;;;;;;5071549;28;20040;-69
2022/12/27 02:06:51;;;;;;;5.15;2.13;;;2.70;99.90;;;;;;5070121;28;20084;-68
2022/12/27 02:09:25;;;;;;;6.32;2.28;;;2.80;99.90;;;;;;5062515;28;20048;-68
2022/12/27 02:11:55;;;;;;;4.43;2.60;;;2.80;99.90;;;;;;5081731;28;20090;-68
2022/12/27 02:14:31;;;;;;;5.38;2.65;;;2.80;99.90;;;;;;5061927;28;20128;-68
2022/12/27 02:17:02;;;;;;;5.57;2.20;;;2.80;99.90;;;;;;5078421;28;20049;-68
2022/12/27 02:19:41;;;;;;;5.93;2.20;;;2.80;99.90;;;;;;5068605;28;20048;-69
2022/12/27 02:24:01;;;;;;;3.92;1.92;;;2.80;99.90;;;;;;5082593;28;20067;-68
2022/12/27 02:25:43;;;;;;;11.73;2.92;;;2.80;99.90;;;;;;5071883;28;20102;-68
2022/12/27 02:28:31;;;;;;;5.18;2.58;;;2.90;99.90;;;;;;5083490;28;20044;-68
2022/12/27 02:31:29;;;;;;;6.63;2.58;;;3.00;99.90;;;;;;5079828;28;20049;-68
2022/12/27 02:33:57;;;;;;;6.10;2.92;;;3.10;99.90;;;;;;5047205;28;20052;-69
2022/12/27 02:36:28;;;;;;;5.15;2.50;;;3.10;99.90;;;;;;5067570;28;20037;-68
2022/12/27 02:38:57;;;;;;;6.75;2.40;;;3.10;99.90;;;;;;5083000;28;20049;-68
2022/12/27 02:53:02;;;;;;;4.32;2.42;;;2.90;99.90;;;;;;5081598;28;20131;-69
2022/12/27 02:58:58;;;;;;;8.35;2.53;;;2.80;99.90;;;;;;5083322;28;20049;-69
2022/12/27 03:04:51;;;;;;;5.78;2.47;;;2.80;99.90;;;;;;5083048;28;20052;-68
2022/12/27 03:07:34;;;;;;;8.77;2.80;;;2.80;99.90;;;;;;5075907;28;20508;-68
2022/12/27 03:16:21;;;;;;;4.80;2.42;;;3.00;99.90;;;;;;5063097;28;20152;-67
2022/12/27 03:19:07;;;;;;;5.93;2.40;;;3.00;99.90;;;;;;5078303;28;20044;-69
2022/12/27 03:27:27;;;;;;;3.67;2.45;;;3.10;99.90;;;;;;5080772;28;20052;-68
2022/12/27 03:35:39;;;;;;;5.05;2.15;;;3.20;99.90;;;;;;5067979;28;19921;-69
2022/12/27 03:38:08;;;;;;;4.88;2.00;;;3.40;99.90;;;;;;5096228;28;20084;-69
2022/12/27 03:43:35;;;;;;;4.68;1.92;;;3.20;99.90;;;;;;5081265;28;20036;-68
2022/12/27 03:46:35;;;;;;;5.30;2.00;;;3.20;99.90;;;;;;5081334;28;20380;-68
2022/12/27 03:49:09;;;;;;;4.80;2.03;;;3.30;99.90;;;;;;5061996;28;20082;-67
2022/12/27 03:51:40;;;;;;;4.82;2.22;;;3.40;99.90;;;;;;5080364;28;20052;-68
2022/12/27 03:54:14;;;;;;;7.53;2.60;;;3.40;99.90;;;;;;5080520;28;20392;-68
2022/12/27 03:56:41;;;;;;;3.30;1.73;;;3.50;99.90;;;;;;5079235;28;20051;-67
2022/12/27 03:59:08;;;;;;;4.05;1.65;;;3.60;99.90;;;;;;5080775;28;20076;-69
2022/12/27 04:01:34;;;;;;;5.47;2.05;;;3.60;99.90;;;;;;5060890;28;20059;-69
2022/12/27 04:04:00;;;;;;;5.53;2.13;;;3.60;99.90;;;;;;5082000;28;20056;-68
2022/12/27 04:06:26;;;;;;;5.53;2.38;;;3.50;99.90;;;;;;5078985;28;20040;-68
2022/12/27 04:36:14;;;;;;;4.22;1.80;;;3.50;99.90;;;;;;5063099;28;20044;-68
2022/12/27 04:38:40;;;;;;;4.13;2.05;;;3.50;99.90;;;;;;5079494;28;20069;-68
2022/12/27 04:55:12;;;;;;;5.72;1.52;;;3.60;99.90;;;;;;5080766;28;20532;-69
2022/12/27 04:57:38;;;;;;;4.63;2.08;;;3.60;99.90;;;;;;5078570;28;20058;-68
2022/12/27 05:02:49;;;;;;;4.25;2.20;;;3.60;99.90;;;;;;5080643;28;20102;-68
2022/12/27 05:05:15;;;;;;;3.10;1.45;;;3.70;99.90;;;;;;5060920;28;20080;-68
2022/12/27 05:15:55;;;;;;;5.68;1.83;;;3.70;99.90;;;;;;5065440;28;20037;-69
2022/12/27 05:18:21;;;;;;;3.05;1.55;;;3.80;99.90;;;;;;5077752;28;20068;-69
2022/12/27 05:20:47;;;;;;;3.28;1.70;;;3.80;99.90;;;;;;5078495;28;20036;-68
2022/12/27 05:25:57;;;;;;;6.57;2.10;;;3.90;99.90;;;;;;5076573;28;20074;-70
2022/12/27 05:28:22;;;;;;;4.22;1.85;;;3.80;99.90;;;;;;5079660;28;20053;-69
2022/12/27 05:30:48;;;;;;;4.65;1.98;;;3.90;99.90;;;;;;5077822;28;20036;-69
2022/12/27 05:33:14;;;;;;;5.57;1.90;;;3.80;99.90;;;;;;5079246;28;20060;-68
2022/12/27 05:35:40;;;;;;;6.15;1.83;;;3.80;99.90;;;;;;5060790;28;20036;-69
2022/12/27 05:38:06;;;;;;;4.30;2.03;;;3.90;99.90;;;;;;5079117;28;20048;-69
2022/12/27 05:40:32;;;;;;;6.28;1.80;;;3.80;99.90;;;;;;5079137;28;20036;-69
2022/12/27 05:42:59;;;;;;;5.53;2.30;;;3.80;99.90;;;;;;5082357;28;20044;-69
2022/12/27 05:45:25;;;;;;;6.75;2.30;;;3.70;99.90;;;;;;5082936;28;20071;-69
2022/12/27 05:47:51;;;;;;;6.40;2.40;;;3.60;99.90;;;;;;5065367;28;20044;-69
2022/12/27 05:50:17;;;;;;;4.75;2.10;;;3.50;99.90;;;;;;5084773;28;20052;-68
2022/12/27 05:52:43;;;;;;;4.90;2.10;;;3.80;99.90;;;;;;5083817;28;20037;-69
2022/12/27 05:55:09;;;;;;;4.90;2.33;;;3.60;99.90;;;;;;5067557;28;20040;-68
2022/12/27 05:57:35;;;;;;;4.50;1.83;;;3.50;99.90;;;;;;5082587;28;20044;-67
2022/12/27 06:00:01;;;;;;;4.10;2.20;;;3.50;99.90;;;;;;5067182;28;20040;-68
2022/12/27 06:02:27;;;;;;;5.13;1.80;;;3.50;99.90;;;;;;5083147;28;20048;-68
2022/12/27 06:04:52;;;;;;;3.85;2.00;;;3.40;99.90;;;;;;5080313;28;20093;-69
2022/12/27 06:07:18;;;;;;;5.32;2.10;;;3.40;99.90;;;;;;5081950;28;20040;-69
2022/12/27 06:09:44;;;;;;;6.35;2.25;;;3.40;99.90;;;;;;5076032;28;20460;-68
2022/12/27 06:12:09;;;;;;;3.45;1.55;;;3.30;99.90;;;;;;5061848;28;20048;-69
2022/12/27 06:14:35;;;;;;;5.53;2.05;;;3.40;99.90;;;;;;5071528;28;20052;-69
2022/12/27 06:17:01;;;;;;;4.88;2.30;;;3.40;99.90;;;;;;5082425;28;20664;-69
2022/12/27 06:19:26;;;;;;;4.78;2.10;;;3.50;99.90;;;;;;5081606;28;20115;-69
2022/12/27 06:21:52;;;;;;;5.38;1.88;;;3.80;99.90;;;;;;5064774;28;20056;-68
2022/12/27 06:24:18;;;;;;;4.85;2.13;;;3.60;99.90;;;;;;5082153;28;20044;-69
2022/12/27 06:26:43;;;;;;;5.25;1.80;;;3.60;99.90;;;;;;5063558;28;20052;-69
2022/12/27 06:29:11;;;;;;;4.07;1.70;;;3.70;99.90;;;;;;5065736;28;20068;-69
2022/12/27 06:31:37;;;;;;;6.43;2.08;;;3.70;99.90;;;;;;5079921;28;20068;-69
2022/12/27 06:34:04;;;;;;;8.88;1.98;;;3.80;99.90;;;;;;5065304;28;20100;-69
2022/12/27 06:36:31;;;;;;;4.47;1.48;;;3.70;99.90;;;;;;5081494;28;20049;-69
2022/12/27 06:38:57;;;;;;;6.82;1.85;;;3.70;99.90;;;;;;5080753;28;20054;-69
2022/12/27 06:41:23;;;;;;;4.60;1.75;;;3.70;99.90;;;;;;5082147;28;20059;-68
2022/12/27 06:43:53;;;;;;;4.43;1.58;;;3.70;99.90;;;;;;5081862;28;20041;-68
2022/12/27 06:46:19;;;;;;;3.97;1.65;;;3.70;99.90;;;;;;5082185;28;20041;-69
2022/12/27 06:48:46;;;;;;;5.10;1.60;;;3.70;99.90;;;;;;5079775;28;20404;-68
2022/12/27 06:51:12;;;;;;;7.57;1.80;;;3.70;99.90;;;;;;5083721;28;20044;-68
2022/12/27 06:53:38;;;;;;;5.75;1.85;;;3.80;99.90;;;;;;5082180;28;20055;-69
2022/12/27 06:56:05;;;;;;;4.63;2.20;;;3.80;99.90;;;;;;5064198;28;20131;-67
2022/12/27 06:58:31;;;;;;;3.17;1.60;;;3.80;99.90;;;;;;5081926;28;20045;-69
2022/12/27 07:00:57;;;;;;;3.40;1.27;;;3.80;99.90;;;;;;5063093;28;20079;-69
2022/12/27 07:03:22;;;;;;;3.78;1.38;;;3.80;99.90;;;;;;5064704;28;20063;-68
2022/12/27 07:05:48;;;;;;;4.20;1.80;;;3.80;99.90;;;;;;5079537;28;20512;-69
2022/12/27 07:08:14;;;;;;;4.78;1.48;;;3.80;99.90;;;;;;5081209;28;20130;-68
2022/12/27 07:10:39;;;;;;;5.43;2.15;;;3.80;99.90;;;;;;5081676;28;20052;-69
2022/12/27 07:13:05;;;;;;;3.55;1.92;;;3.90;99.90;;;;;;5068331;28;20036;-69
2022/12/27 07:15:31;;;;;;;5.20;2.15;;;3.90;99.90;;;;;;5072207;28;20098;-68
2022/12/27 07:17:58;;;;;;;4.20;2.42;;;3.90;99.90;;;;;;5094396;28;20075;-69
2022/12/27 07:20:23;;;;;;;5.90;2.38;;;3.90;99.90;;;;;;5081368;28;20104;-69
2022/12/27 07:22:49;;;;;;;6.70;2.33;;;3.80;99.90;;;;;;5080487;28;20071;-68
2022/12/27 07:25:15;;;;;;;4.90;2.08;;;3.70;99.90;;;;;;5082092;28;20044;-68
2022/12/27 07:27:41;;;;;;;4.13;1.80;;;3.60;99.90;;;;;;5080820;28;20135;-68
2022/12/27 07:30:07;;;;;;;5.07;2.65;;;3.50;99.90;;;;;;5081666;28;20041;-68
2022/12/27 07:32:33;;;;;;;6.47;2.33;;;3.50;99.90;;;;;;5081635;28;20067;-67
2022/12/27 07:34:58;;;;;;;4.15;2.17;;;3.40;99.90;;;;;;5080434;28;20040;-68
2022/12/27 07:37:24;;;;;;;8.43;2.75;;;3.30;99.90;;;;;;5081587;28;20044;-68
2022/12/27 07:39:50;;;;;;;6.97;2.50;;;3.30;99.90;;;;;;5080119;28;20197;-69
2022/12/27 07:42:15;;;;;;;4.05;2.55;;;3.30;99.90;;;;;;5063883;28;20049;-69
2022/12/27 07:44:41;;;;;;;8.43;3.08;;;3.20;99.90;;;;;;5079101;28;20086;-68
2022/12/27 07:47:07;;;;;;;5.78;2.70;;;3.20;99.90;;;;;;5081596;28;20032;-69
2022/12/27 07:49:33;;;;;;;7.00;3.22;;;3.20;99.90;;;;;;5080417;28;20052;-68
2022/12/27 07:51:58;;;;;;;6.47;3.13;;;3.30;99.90;;;;;;5080114;28;20033;-69
2022/12/27 07:54:24;;;;;;;8.02;3.10;;;3.20;99.90;;;;;;5080669;28;20045;-68
2022/12/27 07:56:50;;;;;;;4.85;2.75;;;3.20;99.90;;;;;;5080327;28;20048;-68
2022/12/27 07:59:15;;;;;;;6.05;2.70;;;3.20;99.90;;;;;;5080454;28;20084;-67
2022/12/27 08:02:02;;;;;;;6.47;3.13;;;3.20;99.90;;;;;;5061563;28;20060;-68
2022/12/27 08:04:27;;;;;;;5.70;3.00;;;3.20;99.90;;;;;;5080919;28;20044;-69
2022/12/27 08:06:58;;;;;;;7.95;2.65;;;3.20;99.90;;;;;;5081805;28;20050;-69
2022/12/27 08:09:27;;;;;;;5.10;2.75;;;3.20;99.90;;;;;;5079762;28;20068;-68
2022/12/27 08:11:53;;;;;;;4.57;1.92;;;3.20;99.90;;;;;;5081623;28;20231;-68
2022/12/27 08:14:19;;;;;;;5.40;2.67;;;3.30;99.90;;;;;;5074864;28;20081;-69
2022/12/27 08:16:44;;;;;;;8.80;2.42;;;3.20;99.90;;;;;;5080510;28;20052;-68
2022/12/27 08:19:10;;;;;;;9.18;2.60;;;3.10;99.90;;;;;;5074132;28;20121;-68
2022/12/27 08:21:36;;;;;;;5.93;2.40;;;3.20;99.90;;;;;;5068233;28;20036;-68
2022/12/27 08:24:01;;;;;;;5.82;2.55;;;3.30;99.90;;;;;;5076518;28;20049;-69
2022/12/27 08:26:27;;;;;;;6.13;2.20;;;3.30;99.90;;;;;;5073573;28;20109;-69
2022/12/27 08:28:53;;;;;;;4.13;1.98;;;3.30;99.90;;;;;;5080130;28;20408;-69
2022/12/27 08:31:18;;;;;;;5.82;2.50;;;3.50;99.90;;;;;;5087395;28;20048;-69
2022/12/27 08:33:44;;;;;;;4.55;2.03;;;3.40;99.90;;;;;;5079079;28;20043;-68
2022/12/27 08:36:12;;;;;;;6.50;2.33;;;3.40;99.90;;;;;;5077419;28;20145;-69
2022/12/27 08:38:38;;;;;;;5.63;2.47;;;3.40;99.90;;;;;;5076605;28;20055;-70
2022/12/27 08:41:04;;;;;;;7.60;2.55;;;3.40;99.90;;;;;;5093974;28;20060;-69
2022/12/27 08:43:30;;;;;;;5.53;2.60;;;3.50;99.90;;;;;;5078311;28;20067;-69
2022/12/27 08:46:04;;;;;;;7.47;2.60;;;3.50;99.90;;;;;;5081372;28;20479;-69
2022/12/27 08:48:32;;;;;;;5.93;2.05;;;3.50;99.90;;;;;;5072534;28;20048;-69
2022/12/27 08:51:05;;;;;;;5.75;2.47;;;3.60;99.90;;;;;;5080267;28;20101;-69
2022/12/27 08:53:31;;;;;;;7.45;2.55;;;3.70;99.90;;;;;;5079746;28;20076;-68
2022/12/27 08:55:57;;;;;;;4.63;2.45;;;3.70;99.90;;;;;;5079369;28;20114;-69
2022/12/27 08:58:22;;;;;;;6.50;2.92;;;3.80;99.90;;;;;;5078836;28;20119;-68
2022/12/27 09:00:49;;;;;;;6.40;3.10;;;3.90;99.90;;;;;;5078453;28;20099;-68
2022/12/27 09:03:18;;;;;;;6.43;2.90;;;3.90;99.90;;;;;;5079219;28;20045;-69
2022/12/27 09:05:43;;;;;;;6.88;2.72;;;4.00;99.90;;;;;;5078914;28;20060;-69
2022/12/27 09:08:10;;;;;;;8.13;2.67;;;4.00;99.90;;;;;;5080028;28;20056;-68
2022/12/27 09:10:36;;;;;;;4.32;2.15;;;4.10;99.90;;;;;;5074825;28;20040;-69
2022/12/27 09:13:02;;;;;;;7.35;2.92;;;4.00;99.90;;;;;;5078399;28;20044;-69
2022/12/27 09:15:27;;;;;;;7.28;2.85;;;4.00;99.90;;;;;;5082290;28;20066;-68
2022/12/27 09:17:53;;;;;;;5.57;2.70;;;3.90;99.90;;;;;;5067352;28;20045;-69
2022/12/27 09:20:19;;;;;;;6.55;3.22;;;3.90;99.90;;;;;;5081339;28;20044;-69
2022/12/27 09:22:45;;;;;;;6.60;2.88;;;3.90;99.90;;;;;;5081484;28;20037;-68
2022/12/27 09:25:10;;;;;;;5.45;2.63;;;3.90;99.90;;;;;;5084719;28;20040;-68
2022/12/27 09:27:37;;;;;;;6.55;3.20;;;3.90;99.90;;;;;;5066903;28;20040;-69
2022/12/27 09:30:05;;;;;;;8.30;3.22;;;4.00;99.90;;;;;;5084885;28;20040;-68
2022/12/27 09:32:31;;;;;;;5.50;2.72;;;4.00;99.90;;;;;;5086056;28;20055;-69
2022/12/27 09:34:57;;;;;;;10.18;3.00;;;4.00;99.90;;;;;;5084263;28;20040;-68
2022/12/27 09:37:22;;;;;;;5.68;2.58;;;4.10;99.90;;;;;;5084713;28;20536;-68
2022/12/27 09:39:48;;;;;;;5.05;3.00;;;4.30;99.90;;;;;;5081482;28;20051;-68
2022/12/27 09:42:45;;;;;;;5.93;2.90;;;4.20;99.90;;;;;;5082022;28;21230;-69
2022/12/27 09:45:21;;;;;;;6.18;2.90;;;4.30;99.90;;;;;;5080451;28;20090;-69
2022/12/27 09:47:52;;;;;;;5.45;2.53;;;4.30;99.90;;;;;;5080514;28;20106;-69
2022/12/27 09:50:33;;;;;;;6.30;3.00;;;4.30;99.90;;;;;;5082465;28;20045;-69
2022/12/27 09:53:25;;;;;;;5.43;2.80;;;4.30;99.90;;;;;;5082534;28;20102;-69
2022/12/27 09:55:56;;;;;;;8.73;2.65;;;4.40;99.90;;;;;;5053272;28;20399;-69
2022/12/27 09:58:46;;;;;;;6.88;3.13;;;4.50;99.90;;;;;;5083063;28;20060;-68
2022/12/27 10:01:27;;;;;;;5.38;2.85;;;4.50;99.90;;;;;;5081234;28;20107;-69
2022/12/27 10:03:53;;;;;;;8.38;3.00;;;4.60;99.90;;;;;;5081200;28;20590;-69
2022/12/27 10:06:40;;;;;;;6.07;2.47;;;4.70;99.90;;;;;;5062821;28;20043;-66
2022/12/27 10:09:25;;;;;;;5.22;2.50;;;4.80;99.90;;;;;;5078142;28;20040;-68
2022/12/27 10:11:59;;;;;;;6.10;2.90;;;4.90;99.90;;;;;;5082934;28;20032;-69
2022/12/27 10:14:47;;;;;;;6.75;2.70;;;5.10;99.90;;;;;;5082739;28;20048;-69
2022/12/27 10:17:40;;;;;;;8.43;3.05;;;5.30;99.90;;;;;;5086293;28;20044;-70
2022/12/27 10:20:43;;;;;;;5.95;2.13;;;5.40;99.90;;;;;;5084602;28;20040;-69
2022/12/27 10:23:15;;;;;;;5.10;2.42;;;5.40;99.90;;;;;;5064470;28;20076;-67
2022/12/27 10:25:43;;;;;;;4.15;2.53;;;5.40;99.90;;;;;;5081339;28;20045;-69
2022/12/27 10:28:21;;;;;;;4.57;2.42;;;5.70;99.90;;;;;;5083093;28;20073;-69
2022/12/27 10:30:47;;;;;;;5.68;3.22;;;6.00;99.90;;;;;;5080505;28;20055;-69
2022/12/27 10:33:28;;;;;;;3.70;2.08;;;6.30;99.90;;;;;;5083020;28;20044;-67
2022/12/27 10:35:54;;;;;;;7.70;2.40;;;6.50;99.90;;;;;;5073519;28;20060;-68
2022/12/27 10:38:20;;;;;;;5.35;2.28;;;6.70;99.90;;;;;;5082812;28;20044;-69
2022/12/27 10:40:50;;;;;;;6.28;2.40;;;6.80;99.90;;;;;;5081764;28;20041;-70
2022/12/27 10:43:32;;;;;;;5.22;2.08;;;6.50;99.90;;;;;;5077788;28;20100;-68
2022/12/27 10:46:19;;;;;;;6.03;2.60;;;6.10;99.90;;;;;;5082865;28;20036;-69
2022/12/27 10:49:40;;;;;;;4.75;2.53;;;5.80;99.90;;;;;;5079746;28;20048;-69
2022/12/27 10:52:18;;;;;;;4.68;2.25;;;5.40;99.90;;;;;;5076046;28;20053;-67
2022/12/27 10:54:55;;;;;;;4.35;2.30;;;5.50;99.90;;;;;;5069334;28;20049;-69
2022/12/27 10:57:27;;;;;;;4.47;2.33;;;5.60;99.90;;;;;;5070161;28;20085;-67
2022/12/27 11:00:28;;;;;;;5.18;2.22;;;5.40;99.90;;;;;;5082622;28;20052;-67
2022/12/27 11:02:56;;;;;;;7.50;2.50;;;5.30;99.90;;;;;;5059241;28;20207;-68
2022/12/27 11:05:25;;;;;;;5.22;2.45;;;5.30;99.90;;;;;;5061247;28;20070;-66
2022/12/27 11:07:51;;;;;;;6.80;2.30;;;5.50;99.90;;;;;;5082355;28;20504;-68
2022/12/27 11:10:26;;;;;;;6.97;2.17;;;5.90;99.90;;;;;;5072181;28;20082;-67
2022/12/27 11:13:00;;;;;;;8.35;2.10;;;6.10;99.90;;;;;;5073456;28;20071;-68
2022/12/27 11:15:29;;;;;;;5.80;2.25;;;6.10;99.90;;;;;;5070725;28;20044;-68
2022/12/27 11:18:00;;;;;;;7.55;2.30;;;6.10;99.90;;;;;;5070356;28;20047;-69
2022/12/27 11:20:32;;;;;;;4.55;2.05;;;6.10;99.90;;;;;;5081581;28;20558;-69
2022/12/27 11:23:07;;;;;;;6.40;1.73;;;6.10;99.90;;;;;;5079233;28;20052;-69
2022/12/27 11:25:34;;;;;;;5.13;2.10;;;6.00;99.90;;;;;;5080312;28;20052;-69
2022/12/27 11:28:17;;;;;;;5.13;1.83;;;6.00;99.90;;;;;;5082031;28;20059;-69
2022/12/27 11:30:56;;;;;;;6.15;2.33;;;5.90;99.90;;;;;;5080235;28;20105;-69
2022/12/27 11:33:40;;;;;;;6.97;2.17;;;5.90;99.90;;;;;;5081419;28;20049;-68
2022/12/27 11:36:11;;;;;;;3.85;1.70;;;5.90;99.90;;;;;;5079414;28;20060;-69
2022/12/27 11:38:38;;;;;;;5.55;2.28;;;6.00;99.90;;;;;;5080959;28;20043;-69
2022/12/27 11:41:17;;;;;;;5.18;2.00;;;6.00;99.90;;;;;;5099406;28;20103;-68
2022/12/27 11:43:52;;;;;;;7.15;2.45;;;6.10;99.90;;;;;;5077817;28;20526;-68
2022/12/27 11:46:35;;;;;;;3.97;1.67;;;6.10;99.90;;;;;;5081871;28;20498;-67
2022/12/27 11:49:05;;;;;;;5.78;2.15;;;6.20;99.90;;;;;;5080387;28;20046;-69
2022/12/27 11:52:06;;;;;;;4.43;2.00;;;6.10;99.90;;;;;;5063361;28;20053;-69
2022/12/27 11:54:46;;;;;;;5.28;1.50;;;6.20;99.90;;;;;;5057345;28;20049;-69
2022/12/27 11:57:36;;;;;;;4.63;1.65;;;6.30;99.90;;;;;;5079785;28;20594;-67
2022/12/27 12:00:25;;;;;;;8.02;2.17;;;6.30;99.90;;;;;;5080931;28;20048;-69
2022/12/27 12:03:26;;;;;;;5.70;1.92;;;6.30;99.90;;;;;;5081076;28;20471;-66
2022/12/27 12:06:11;;;;;;;5.90;1.75;;;6.30;99.90;;;;;;5079527;28;20075;-69
2022/12/27 12:09:06;;;;;;;6.32;1.63;;;6.30;99.90;;;;;;5080730;28;20058;-67
2022/12/27 12:11:50;;;;;;;5.43;1.90;;;6.40;99.90;;;;;;5080905;28;20134;-69
2022/12/27 12:14:41;;;;;;;4.50;1.80;;;6.40;99.90;;;;;;5075145;28;20132;-67
2022/12/27 12:17:28;;;;;;;6.60;1.88;;;6.30;99.90;;;;;;5070404;28;20377;-67
2022/12/27 12:20:21;;;;;;;7.72;1.98;;;6.30;99.90;;;;;;5081463;28;20084;-69
2022/12/27 12:23:24;;;;;;;4.10;1.80;;;6.20;99.90;;;;;;5060523;28;20104;-67
2022/12/27 12:26:07;;;;;;;5.50;2.35;;;6.20;99.90;;;;;;5078522;28;20108;-68
2022/12/27 12:28:54;;;;;;;5.10;2.25;;;6.20;99.90;;;;;;5081691;28;20059;-67
2022/12/27 12:31:25;;;;;;;;;;;6.20;99.90;;;;;;5062219;28;20090;-67
2022/12/27 12:34:22;;;;;;;5.63;2.33;;;6.10;99.90;;;;;;5081159;28;19928;-69
2022/12/27 12:37:01;;;;;;;5.40;2.45;;;6.10;99.90;;;;;;5073395;28;20055;-67
2022/12/27 12:39:38;;;;;;;5.78;2.70;;;6.20;99.90;;;;;;5079367;28;20056;-68
2022/12/27 12:42:32;;;;;;;6.35;2.40;;;6.20;99.90;;;;;;5079376;28;20060;-68
2022/12/27 12:45:05;;;;;;;6.35;2.28;;;6.30;99.90;;;;;;5080044;28;20061;-67
2022/12/27 12:48:22;;;;;;;5.93;2.63;;;6.20;99.90;;;;;;5078142;28;20127;-67
2022/12/27 12:51:10;;;;;;;5.22;2.38;;;6.00;99.90;;;;;;5057702;28;20050;-68
2022/12/27 12:54:05;;;;;;;8.23;2.95;;;5.90;99.90;;;;;;5065698;28;20072;-67
2022/12/27 12:57:00;;;;;;;5.78;2.97;;;5.90;99.90;;;;;;5055716;28;20049;-68
2022/12/27 13:00:11;;;;;;;5.75;2.33;;;6.00;99.90;;;;;;5067224;28;20045;-67
2022/12/27 13:02:56;;;;;;;5.65;2.95;;;6.30;99.90;;;;;;5051413;28;20107;-68
2022/12/27 13:05:51;;;;;;;4.80;2.72;;;6.30;99.90;;;;;;5062530;28;20484;-68
2022/12/27 13:08:41;;;;;;;8.45;3.28;;;6.20;99.90;;;;;;5080755;28;20070;-68
2022/12/27 13:11:22;;;;;;;5.65;3.30;;;6.20;99.90;;;;;;5069832;28;20427;-67
2022/12/27 13:14:22;;;;;;;5.50;3.50;;;6.10;99.90;;;;;;5073222;28;20136;-68
2022/12/27 13:17:25;;;;;;;7.63;3.90;;;6.00;99.90;;;;;;5060903;28;20053;-68
2022/12/27 13:20:23;;;;;;;7.65;4.30;;;6.00;99.90;;;;;;5079091;28;20472;-68
2022/12/27 13:23:04;;;;;;;6.55;3.88;;;6.10;99.90;;;;;;5048204;28;20511;-67
2022/12/27 13:25:38;;;;;;;5.53;3.00;;;6.20;99.90;;;;;;5080116;28;20037;-68
2022/12/27 13:28:22;;;;;;;6.82;3.20;;;6.20;99.90;;;;;;5078697;28;20057;-67
2022/12/27 13:30:55;;;;;;;9.30;4.15;;;6.20;99.90;;;;;;5078040;28;20048;-68
2022/12/27 13:33:35;;;;;;;6.90;3.78;;;6.30;99.90;;;;;;5078810;28;20047;-68
2022/12/27 13:36:21;;;;;;;7.13;4.25;;;6.20;99.90;;;;;;5064276;28;20051;-67
2022/12/27 13:38:52;;;;;;;6.87;3.97;;;6.10;99.90;;;;;;5052110;28;20127;-68
2022/12/27 13:41:56;;;;;;;7.75;4.65;;;6.10;99.90;;;;;;5079572;28;20080;-67
2022/12/27 13:44:40;;;;;;;10.00;4.43;;;6.10;99.90;;;;;;5079260;28;20072;-67
2022/12/27 13:47:34;;;;;;;8.20;4.68;;;6.20;99.90;;;;;;5079824;28;20540;-68
2022/12/27 13:50:18;;;;;;;9.43;4.95;;;6.20;99.90;;;;;;5075246;28;20051;-68
2022/12/27 13:53:19;;;;;;;8.32;5.20;;;6.20;99.90;;;;;;5076282;28;20053;-68
2022/12/27 13:56:09;;;;;;;8.07;4.75;;;6.20;99.90;;;;;;5064922;28;20080;-68
2022/12/27 13:59:02;;;;;;;11.30;5.65;;;6.20;99.90;;;;;;5080002;28;20047;-67
2022/12/27 14:01:44;;;;;;;8.63;5.78;;;6.10;99.90;;;;;;5077225;28;20114;-68
2022/12/27 14:04:22;;;;;;;9.45;5.40;;;6.00;99.90;;;;;;5080788;28;20045;-68
2022/12/27 14:07:04;;;;;;;10.50;5.95;;;6.00;99.90;;;;;;5080448;28;20047;-67
2022/12/27 14:09:58;;;;;;;10.43;5.90;;;6.00;99.90;;;;;;5075768;28;20052;-67
2022/12/27 14:12:53;;;;;;;11.00;6.63;;;6.00;99.90;;;;;;5078536;28;20040;-67
2022/12/27 14:15:35;;;;;;;8.38;5.60;;;5.90;99.90;;;;;;5112348;28;20362;-67
2022/12/27 14:18:35;;;;;;;10.77;6.82;;;5.90;99.90;;;;;;5071262;28;20032;-68
2022/12/27 14:21:07;;;;;;;11.23;6.43;;;5.80;99.90;;;;;;5082941;28;20079;-67
2022/12/27 14:23:59;;;;;;;9.80;6.28;;;5.80;99.90;;;;;;5083053;28;20104;-67
2022/12/27 14:26:40;;;;;;;10.95;6.57;;;5.70;99.90;;;;;;5071450;28;20114;-67
2022/12/27 14:29:33;;;;;;;9.93;5.75;;;5.70;99.90;;;;;;5074541;28;20044;-67
2022/12/27 14:32:24;;;;;;;9.30;6.38;;;5.70;99.90;;;;;;5076439;28;20049;-67
2022/12/27 14:35:20;;;;;;;10.80;6.35;;;5.60;99.90;;;;;;5078615;28;20044;-67
2022/12/27 14:37:54;;;;;;;9.10;5.93;;;5.50;99.90;;;;;;5084627;28;20048;-67
2022/12/27 14:40:39;;;;;;;10.57;6.07;;;5.50;99.90;;;;;;5082910;28;20044;-66
2022/12/27 14:43:44;;;;;;;8.77;6.40;;;5.50;99.90;;;;;;5070506;28;20044;-67
2022/12/27 14:46:30;;;;;;;10.57;6.93;;;5.50;99.90;;;;;;5076910;28;20063;-67
2022/12/27 14:49:21;;;;;;;7.57;5.70;;;5.50;99.90;;;;;;5082171;28;20052;-67
2022/12/27 14:52:41;;;;;;;8.80;6.13;;;5.40;99.90;;;;;;5061818;28;20128;-67
2022/12/27 14:55:25;;;;;;;11.65;7.57;;;5.40;99.90;;;;;;5055528;28;20430;-67
2022/12/27 14:57:54;;;;;;;10.90;6.43;;;5.40;99.90;;;;;;5073047;28;20053;-67
2022/12/27 15:00:24;;;;;;;10.30;6.72;;;5.40;99.90;;;;;;5077620;28;20066;-67
2022/12/27 15:02:56;;;;;;;11.23;6.13;;;5.40;99.90;;;;;;5078946;28;20743;-67
2022/12/27 15:05:32;;;;;;;9.25;6.57;;;5.40;99.90;;;;;;5080010;28;20088;-67
2022/12/27 15:08:32;;;;;;;11.05;6.28;;;5.40;99.90;;;;;;5082985;28;20053;-67
2022/12/27 15:11:22;;;;;;;10.13;6.43;;;5.40;99.90;;;;;;5080949;28;20055;-67